createdAt,value
2017-12-31T00:01:00.405Z,15.07
2017-12-31T00:02:39.948Z,15.47
2017-12-31T00:04:17.908Z,15.26
2017-12-31T00:05:55.551Z,15.11
2017-12-31T00:07:33.855Z,15.32
2017-12-31T00:09:10.766Z,15.64
2017-12-31T00:10:50.147Z,15.62
2017-12-31T00:12:27.014Z,15.60
2017-12-31T00:14:05.100Z,15.71
2017-12-31T00:15:43.050Z,15.64
2017-12-31T00:17:20.684Z,15.70
2017-12-31T00:18:57.597Z,15.87
2017-12-31T00:20:35.530Z,15.51
2017-12-31T00:22:15.733Z,15.52
2017-12-31T00:23:53.068Z,15.61
2017-12-31T00:25:38.163Z,15.15
2017-12-31T00:27:15.560Z,14.90
2017-12-31T00:28:52.229Z,14.80
2017-12-31T00:30:29.468Z,14.75
2017-12-31T00:32:06.362Z,14.77
2017-12-31T00:33:43.619Z,14.96
2017-12-31T00:35:20.352Z,15.03
2017-12-31T00:36:58.430Z,15.01
2017-12-31T00:38:35.189Z,14.99
2017-12-31T00:40:11.891Z,15.33
2017-12-31T00:41:48.802Z,15.29
2017-12-31T00:43:25.517Z,15.21
2017-12-31T00:45:04.633Z,15.45
2017-12-31T00:46:45.045Z,15.26
2017-12-31T00:48:21.909Z,14.95
2017-12-31T00:49:58.613Z,14.84
2017-12-31T00:51:35.216Z,14.80
2017-12-31T00:53:12.144Z,15.28
2017-12-31T00:54:49.600Z,15.41
2017-12-31T00:56:26.186Z,15.37
2017-12-31T00:58:02.863Z,15.32
2017-12-31T00:59:39.857Z,15.35
2017-12-31T01:01:17.494Z,14.98
2017-12-31T01:02:54.377Z,15.02
2017-12-31T01:04:32.006Z,15.02
2017-12-31T01:06:09.226Z,15.22
2017-12-31T01:07:45.965Z,15.16
2017-12-31T01:09:22.664Z,15.44
2017-12-31T01:10:59.398Z,15.64
2017-12-31T01:12:36.133Z,15.78
2017-12-31T01:14:12.902Z,15.89
2017-12-31T01:15:50.555Z,15.83
2017-12-31T01:17:27.810Z,15.55
2017-12-31T01:19:05.329Z,15.37
2017-12-31T01:20:41.947Z,15.32
2017-12-31T01:22:18.594Z,15.28
2017-12-31T01:23:56.104Z,15.17
2017-12-31T01:25:33.430Z,15.11
2017-12-31T01:27:10.139Z,14.91
2017-12-31T01:28:46.803Z,15.16
2017-12-31T01:30:23.788Z,15.35
2017-12-31T01:32:00.446Z,15.44
2017-12-31T01:33:37.066Z,15.46
2017-12-31T01:35:14.807Z,15.40
2017-12-31T01:36:52.324Z,15.24
2017-12-31T01:38:30.749Z,15.16
2017-12-31T01:40:09.573Z,15.10
2017-12-31T01:41:47.933Z,15.03
2017-12-31T01:43:25.257Z,15.10
2017-12-31T01:45:04.401Z,15.13
2017-12-31T01:46:42.079Z,15.16
2017-12-31T01:48:19.817Z,15.16
2017-12-31T01:49:59.156Z,14.92
2017-12-31T01:51:37.082Z,15.16
2017-12-31T01:53:14.737Z,15.21
2017-12-31T01:54:51.554Z,15.12
2017-12-31T01:56:33.213Z,15.10
2017-12-31T01:58:10.896Z,15.06
2017-12-31T01:59:47.508Z,15.08
2017-12-31T02:01:24.218Z,15.09
2017-12-31T02:03:00.858Z,15.02
2017-12-31T02:04:38.118Z,14.90
2017-12-31T02:06:14.847Z,14.78
2017-12-31T02:07:53.462Z,14.83
2017-12-31T02:09:31.849Z,14.89
2017-12-31T02:11:09.155Z,14.86
2017-12-31T02:12:45.801Z,14.84
2017-12-31T02:14:27.106Z,14.77
2017-12-31T02:16:04.211Z,14.81
2017-12-31T02:17:42.330Z,14.76
2017-12-31T02:19:21.129Z,14.72
2017-12-31T02:20:58.507Z,14.57
2017-12-31T02:22:36.413Z,14.73
2017-12-31T02:24:13.802Z,14.70
2017-12-31T02:25:50.469Z,14.57
2017-12-31T02:27:29.251Z,14.48
2017-12-31T02:29:05.882Z,14.67
2017-12-31T02:30:42.703Z,14.65
2017-12-31T02:32:22.357Z,14.49
2017-12-31T02:33:59.457Z,14.54
2017-12-31T02:35:36.093Z,14.62
2017-12-31T02:37:12.692Z,14.54
2017-12-31T02:38:49.273Z,14.45
2017-12-31T02:40:27.169Z,14.36
2017-12-31T02:42:04.595Z,14.33
2017-12-31T02:43:41.286Z,14.29
2017-12-31T02:45:17.991Z,14.14
2017-12-31T02:46:55.115Z,14.09
2017-12-31T02:48:32.413Z,13.91
2017-12-31T02:50:09.285Z,13.99
2017-12-31T02:51:46.993Z,13.99
2017-12-31T02:53:24.807Z,14.07
2017-12-31T02:55:02.703Z,14.14
2017-12-31T02:56:39.404Z,14.08
2017-12-31T02:58:15.975Z,14.15
2017-12-31T02:59:55.097Z,14.21
2017-12-31T03:01:32.624Z,14.20
2017-12-31T03:03:09.310Z,14.06
2017-12-31T03:04:47.595Z,14.24
2017-12-31T03:06:24.545Z,14.22
2017-12-31T03:08:02.213Z,14.14
2017-12-31T03:09:39.114Z,14.21
2017-12-31T03:11:16.610Z,14.29
2017-12-31T03:12:55.367Z,14.21
2017-12-31T03:14:33.029Z,14.16
2017-12-31T03:16:13.559Z,14.06
2017-12-31T03:17:50.536Z,14.08
2017-12-31T03:19:29.115Z,14.03
2017-12-31T03:21:05.908Z,13.93
2017-12-31T03:22:43.799Z,13.98
2017-12-31T03:24:21.492Z,14.00
2017-12-31T03:25:59.192Z,13.95
2017-12-31T03:27:36.704Z,13.86
2017-12-31T03:29:13.673Z,13.84
2017-12-31T03:30:52.135Z,13.82
2017-12-31T03:32:29.141Z,13.71
2017-12-31T03:34:05.972Z,13.61
2017-12-31T03:35:42.896Z,13.58
2017-12-31T03:37:20.698Z,13.57
2017-12-31T03:38:57.260Z,13.51
2017-12-31T03:40:34.589Z,13.48
2017-12-31T03:42:11.913Z,13.55
2017-12-31T03:45:36.157Z,13.56
2017-12-31T03:47:16.453Z,13.67
2017-12-31T03:48:53.054Z,13.65
2017-12-31T03:50:30.867Z,13.81
2017-12-31T03:52:10.126Z,13.85
2017-12-31T03:53:47.400Z,13.78
2017-12-31T03:55:24.565Z,13.73
2017-12-31T03:57:06.194Z,13.74
2017-12-31T03:58:44.190Z,13.76
2017-12-31T04:00:25.109Z,13.78
2017-12-31T04:02:03.019Z,13.55
2017-12-31T04:03:39.881Z,13.58
2017-12-31T04:05:18.096Z,13.77
2017-12-31T04:06:54.930Z,13.83
2017-12-31T04:08:32.617Z,13.88
2017-12-31T04:10:09.296Z,13.86
2017-12-31T04:11:45.993Z,13.78
2017-12-31T04:13:22.563Z,13.78
2017-12-31T04:14:59.877Z,13.83
2017-12-31T04:16:36.937Z,13.89
2017-12-31T04:18:13.479Z,13.84
2017-12-31T04:19:50.990Z,13.87
2017-12-31T04:21:27.976Z,13.82
2017-12-31T04:23:04.731Z,13.94
2017-12-31T04:24:41.279Z,13.97
2017-12-31T04:26:18.974Z,14.04
2017-12-31T04:27:56.417Z,14.14
2017-12-31T04:29:34.045Z,14.26
2017-12-31T04:31:13.820Z,14.36
2017-12-31T04:32:50.516Z,14.37
2017-12-31T04:34:27.018Z,14.36
2017-12-31T04:36:03.745Z,14.23
2017-12-31T04:37:40.390Z,14.19
2017-12-31T04:39:17.757Z,14.23
2017-12-31T04:40:54.874Z,14.44
2017-12-31T04:42:31.393Z,14.46
2017-12-31T04:44:08.025Z,14.58
2017-12-31T04:45:44.922Z,14.68
2017-12-31T04:47:22.987Z,14.79
2017-12-31T04:49:00.457Z,14.56
2017-12-31T04:50:37.136Z,14.57
2017-12-31T04:52:13.652Z,14.37
2017-12-31T04:53:50.541Z,14.34
2017-12-31T04:55:27.115Z,14.42
2017-12-31T04:57:04.106Z,14.42
2017-12-31T04:58:40.692Z,14.54
2017-12-31T05:00:22.617Z,14.65
2017-12-31T05:01:59.526Z,14.59
2017-12-31T05:03:36.103Z,14.70
2017-12-31T05:05:12.739Z,14.56
2017-12-31T05:06:50.212Z,14.45
2017-12-31T05:08:26.861Z,14.51
2017-12-31T05:10:03.406Z,14.65
2017-12-31T05:11:40.393Z,14.56
2017-12-31T05:13:17.287Z,14.50
2017-12-31T05:14:53.968Z,14.54
2017-12-31T05:16:34.656Z,14.72
2017-12-31T05:18:12.284Z,14.95
2017-12-31T05:19:49.242Z,15.01
2017-12-31T05:21:25.869Z,14.58
2017-12-31T05:23:02.426Z,14.50
2017-12-31T05:24:40.004Z,14.67
2017-12-31T05:26:17.187Z,14.86
2017-12-31T05:27:54.720Z,14.93
2017-12-31T05:29:33.614Z,14.95
2017-12-31T05:31:10.260Z,14.77
2017-12-31T05:32:47.202Z,15.01
2017-12-31T05:34:23.821Z,15.09
2017-12-31T05:36:00.564Z,14.99
2017-12-31T05:37:38.633Z,15.13
2017-12-31T05:39:16.267Z,15.33
2017-12-31T05:40:54.667Z,15.25
2017-12-31T05:42:31.318Z,15.45
2017-12-31T05:44:08.201Z,15.25
2017-12-31T05:45:45.949Z,14.99
2017-12-31T05:47:23.669Z,15.01
2017-12-31T05:49:00.430Z,15.21
2017-12-31T05:50:38.114Z,15.22
2017-12-31T05:52:14.926Z,15.23
2017-12-31T05:53:51.522Z,15.23
2017-12-31T05:55:29.820Z,15.27
2017-12-31T05:57:07.237Z,15.46
2017-12-31T05:58:44.728Z,15.52
2017-12-31T06:00:21.449Z,15.54
2017-12-31T06:01:59.786Z,15.45
2017-12-31T06:03:37.116Z,15.26
2017-12-31T06:05:13.726Z,15.28
2017-12-31T06:06:51.341Z,15.30
2017-12-31T06:08:28.333Z,15.31
2017-12-31T06:10:05.789Z,15.21
2017-12-31T06:11:43.460Z,15.24
2017-12-31T06:13:21.100Z,15.34
2017-12-31T06:14:59.326Z,15.33
2017-12-31T06:16:35.931Z,15.31
2017-12-31T06:18:12.592Z,15.33
2017-12-31T06:19:50.461Z,15.22
2017-12-31T06:21:28.828Z,15.36
2017-12-31T06:23:06.318Z,15.39
2017-12-31T06:24:44.008Z,15.29
2017-12-31T06:26:21.403Z,15.15
2017-12-31T06:27:59.090Z,15.19
2017-12-31T06:29:36.036Z,15.35
2017-12-31T06:31:12.835Z,15.28
2017-12-31T06:32:49.587Z,15.27
2017-12-31T06:34:27.147Z,15.28
2017-12-31T06:36:03.836Z,15.58
2017-12-31T06:37:40.482Z,15.67
2017-12-31T06:39:26.610Z,15.64
2017-12-31T06:41:04.844Z,15.36
2017-12-31T06:42:41.460Z,15.45
2017-12-31T06:44:17.999Z,15.59
2017-12-31T06:45:54.517Z,15.54
2017-12-31T06:47:33.650Z,15.54
2017-12-31T06:49:10.325Z,15.59
2017-12-31T06:50:47.011Z,15.69
2017-12-31T06:52:24.214Z,15.50
2017-12-31T06:54:01.273Z,15.44
2017-12-31T06:55:38.752Z,15.36
2017-12-31T06:57:15.821Z,15.57
2017-12-31T06:58:52.551Z,15.64
2017-12-31T07:00:30.047Z,15.52
2017-12-31T07:02:06.587Z,15.68
2017-12-31T07:03:43.356Z,15.59
2017-12-31T07:05:20.657Z,15.68
2017-12-31T07:06:57.506Z,15.63
2017-12-31T07:10:10.551Z,15.80
2017-12-31T07:11:48.095Z,15.84
2017-12-31T07:13:25.865Z,15.90
2017-12-31T07:15:02.536Z,15.91
2017-12-31T07:16:39.229Z,15.99
2017-12-31T07:18:15.774Z,15.94
2017-12-31T07:19:53.397Z,15.75
2017-12-31T07:21:30.016Z,15.78
2017-12-31T07:23:07.328Z,15.83
2017-12-31T07:24:43.905Z,15.92
2017-12-31T07:26:21.787Z,15.90
2017-12-31T07:27:58.290Z,15.75
2017-12-31T07:29:34.836Z,15.67
2017-12-31T07:31:11.504Z,15.67
2017-12-31T07:32:50.063Z,15.68
2017-12-31T07:34:26.582Z,15.83
2017-12-31T07:36:03.024Z,15.82
2017-12-31T07:37:39.642Z,15.66
2017-12-31T07:39:16.239Z,15.76
2017-12-31T07:40:52.823Z,16.05
2017-12-31T07:42:30.696Z,16.18
2017-12-31T07:44:07.257Z,16.29
2017-12-31T07:45:44.116Z,16.13
2017-12-31T07:47:20.720Z,16.03
2017-12-31T07:48:57.351Z,15.97
2017-12-31T07:50:33.942Z,15.86
2017-12-31T07:52:11.562Z,15.81
2017-12-31T07:53:48.133Z,15.71
2017-12-31T07:55:25.482Z,15.74
2017-12-31T07:57:02.103Z,15.80
2017-12-31T07:58:38.980Z,15.67
2017-12-31T08:01:58.298Z,15.49
2017-12-31T08:03:35.332Z,15.51
2017-12-31T08:05:13.058Z,15.57
2017-12-31T08:06:50.371Z,15.60
2017-12-31T08:08:26.889Z,15.75
2017-12-31T08:10:03.370Z,15.85
2017-12-31T08:11:40.320Z,15.78
2017-12-31T08:13:16.904Z,15.77
2017-12-31T08:14:53.564Z,15.75
2017-12-31T08:16:30.852Z,15.93
2017-12-31T08:18:07.984Z,16.03
2017-12-31T08:19:44.626Z,15.96
2017-12-31T08:21:21.245Z,15.89
2017-12-31T08:22:58.545Z,15.81
2017-12-31T08:24:35.862Z,15.88
2017-12-31T08:26:12.489Z,15.85
2017-12-31T08:27:49.509Z,15.87
2017-12-31T08:29:26.012Z,15.86
2017-12-31T08:31:03.157Z,15.83
2017-12-31T08:32:39.705Z,15.99
2017-12-31T08:34:16.298Z,16.07
2017-12-31T08:35:52.848Z,16.09
2017-12-31T08:37:30.189Z,15.92
2017-12-31T08:39:06.786Z,15.97
2017-12-31T08:40:43.321Z,15.90
2017-12-31T08:42:19.909Z,15.81
2017-12-31T08:43:57.169Z,15.70
2017-12-31T08:45:34.736Z,15.66
2017-12-31T08:47:11.368Z,15.86
2017-12-31T08:48:48.795Z,15.92
2017-12-31T08:50:25.821Z,15.82
2017-12-31T08:52:03.282Z,15.79
2017-12-31T08:53:39.793Z,15.65
2017-12-31T08:55:17.060Z,15.63
2017-12-31T08:56:54.908Z,15.56
2017-12-31T08:58:31.449Z,15.56
2017-12-31T09:00:09.008Z,15.66
2017-12-31T09:01:46.320Z,15.75
2017-12-31T09:03:24.048Z,15.69
2017-12-31T09:05:00.590Z,15.75
2017-12-31T09:06:37.134Z,15.79
2017-12-31T09:08:14.663Z,15.79
2017-12-31T09:09:51.876Z,15.81
2017-12-31T09:11:28.939Z,15.64
2017-12-31T09:13:05.562Z,15.67
2017-12-31T09:14:42.882Z,15.72
2017-12-31T09:16:20.129Z,15.70
2017-12-31T09:17:57.464Z,15.75
2017-12-31T09:19:34.819Z,15.67
2017-12-31T09:21:11.381Z,15.81
2017-12-31T09:22:48.367Z,15.80
2017-12-31T09:24:34.701Z,15.83
2017-12-31T09:26:11.288Z,15.81
2017-12-31T09:27:48.775Z,15.84
2017-12-31T09:29:26.866Z,15.79
2017-12-31T09:31:03.488Z,15.88
2017-12-31T09:32:40.164Z,15.96
2017-12-31T09:34:27.818Z,15.86
2017-12-31T09:36:04.923Z,15.90
2017-12-31T09:37:41.641Z,15.91
2017-12-31T09:39:18.128Z,15.88
2017-12-31T09:40:54.766Z,15.93
2017-12-31T09:42:31.862Z,15.95
2017-12-31T09:44:09.245Z,16.00
2017-12-31T09:45:47.177Z,16.06
2017-12-31T09:47:23.833Z,15.76
2017-12-31T09:49:00.858Z,15.79
2017-12-31T09:50:37.472Z,15.89
2017-12-31T09:52:14.108Z,15.96
2017-12-31T09:53:51.350Z,15.87
2017-12-31T09:55:28.008Z,15.95
2017-12-31T09:57:04.657Z,15.84
2017-12-31T09:58:41.360Z,15.60
2017-12-31T10:00:19.947Z,15.75
2017-12-31T10:01:56.846Z,15.74
2017-12-31T10:03:33.430Z,15.86
2017-12-31T10:05:10.008Z,15.91
2017-12-31T10:06:46.583Z,16.03
2017-12-31T10:08:23.586Z,16.00
2017-12-31T10:10:00.161Z,16.05
2017-12-31T10:11:36.786Z,15.95
2017-12-31T10:13:14.164Z,16.14
2017-12-31T10:14:51.040Z,16.22
2017-12-31T10:16:27.716Z,16.17
2017-12-31T10:18:06.299Z,16.03
2017-12-31T10:19:43.847Z,16.00
2017-12-31T10:21:20.866Z,15.90
2017-12-31T10:22:57.753Z,15.86
2017-12-31T10:24:34.414Z,15.88
2017-12-31T10:26:11.167Z,15.95
2017-12-31T10:27:48.180Z,16.18
2017-12-31T10:29:24.859Z,16.27
2017-12-31T10:31:01.465Z,16.42
2017-12-31T10:32:38.024Z,16.51
2017-12-31T10:34:15.016Z,16.53
2017-12-31T10:35:51.802Z,16.37
2017-12-31T10:37:29.303Z,16.33
2017-12-31T10:39:06.443Z,16.23
2017-12-31T10:40:49.570Z,16.40
2017-12-31T10:42:26.159Z,16.41
2017-12-31T10:44:02.790Z,16.51
2017-12-31T10:45:40.126Z,16.49
2017-12-31T10:47:16.843Z,16.40
2017-12-31T10:48:54.204Z,16.34
2017-12-31T10:50:31.250Z,16.24
2017-12-31T10:52:08.259Z,16.11
2017-12-31T10:53:44.904Z,16.13
2017-12-31T10:55:22.214Z,16.16
2017-12-31T10:56:59.149Z,16.16
2017-12-31T10:58:36.259Z,16.25
2017-12-31T11:00:14.278Z,16.34
2017-12-31T11:02:04.977Z,16.17
2017-12-31T11:03:41.832Z,16.17
2017-12-31T11:05:19.119Z,16.20
2017-12-31T11:06:56.565Z,16.26
2017-12-31T11:08:34.478Z,16.18
2017-12-31T11:10:11.252Z,16.10
2017-12-31T11:11:48.381Z,16.16
2017-12-31T11:13:25.085Z,16.22
2017-12-31T11:15:01.829Z,16.28
2017-12-31T11:16:38.702Z,16.27
2017-12-31T11:18:16.823Z,16.48
2017-12-31T11:19:53.358Z,16.66
2017-12-31T11:21:31.749Z,16.66
2017-12-31T11:23:08.438Z,16.58
2017-12-31T11:24:46.540Z,16.58
2017-12-31T11:26:23.124Z,16.60
2017-12-31T11:27:59.654Z,16.51
2017-12-31T11:29:37.002Z,16.41
2017-12-31T11:31:14.862Z,16.48
2017-12-31T11:32:51.414Z,16.57
2017-12-31T11:34:28.185Z,16.61
2017-12-31T11:36:04.692Z,16.58
2017-12-31T11:37:41.700Z,16.65
2017-12-31T11:39:18.324Z,16.73
2017-12-31T11:40:54.966Z,16.72
2017-12-31T11:42:32.329Z,16.83
2017-12-31T11:44:17.519Z,16.92
2017-12-31T11:45:55.675Z,16.94
2017-12-31T11:47:32.261Z,16.76
2017-12-31T11:49:08.830Z,16.84
2017-12-31T11:50:46.638Z,16.87
2017-12-31T11:52:24.011Z,17.14
2017-12-31T11:54:00.485Z,17.29
2017-12-31T11:55:37.322Z,17.37
2017-12-31T11:57:15.141Z,17.36
2017-12-31T11:58:52.617Z,17.31
2017-12-31T12:00:30.153Z,17.04
2017-12-31T12:02:06.777Z,16.70
2017-12-31T12:03:46.270Z,16.83
2017-12-31T12:05:23.022Z,16.95
2017-12-31T12:07:00.675Z,16.96
2017-12-31T12:08:40.371Z,17.12
2017-12-31T12:10:29.514Z,16.80
2017-12-31T12:12:07.204Z,16.76
2017-12-31T12:13:44.822Z,16.74
2017-12-31T12:15:21.861Z,16.86
2017-12-31T12:17:00.314Z,16.96
2017-12-31T12:18:36.982Z,17.07
2017-12-31T12:20:13.561Z,17.15
2017-12-31T12:21:50.132Z,17.17
2017-12-31T12:23:28.720Z,17.26
2017-12-31T12:25:05.362Z,17.09
2017-12-31T12:26:42.074Z,16.93
2017-12-31T12:28:18.997Z,16.96
2017-12-31T12:29:55.967Z,16.83
2017-12-31T12:31:34.168Z,16.97
2017-12-31T12:33:10.769Z,17.05
2017-12-31T12:34:47.372Z,17.07
2017-12-31T12:36:25.121Z,17.07
2017-12-31T12:38:02.540Z,17.00
2017-12-31T12:39:39.179Z,17.18
2017-12-31T12:41:16.911Z,17.27
2017-12-31T12:42:53.994Z,17.30
2017-12-31T12:44:30.646Z,17.35
2017-12-31T12:46:07.255Z,17.35
2017-12-31T12:47:44.233Z,17.28
2017-12-31T12:49:23.964Z,17.32
2017-12-31T12:51:00.986Z,17.36
2017-12-31T12:52:37.759Z,17.34
2017-12-31T12:54:15.470Z,17.19
2017-12-31T12:55:54.698Z,17.28
2017-12-31T12:57:31.397Z,17.35
2017-12-31T12:59:08.773Z,17.40
2017-12-31T13:00:45.673Z,17.42
2017-12-31T13:02:23.633Z,17.26
2017-12-31T13:04:04.048Z,17.20
2017-12-31T13:05:44.198Z,17.25
2017-12-31T13:07:22.161Z,17.23
2017-12-31T13:08:59.883Z,17.26
2017-12-31T13:10:36.587Z,17.22
2017-12-31T13:12:13.367Z,17.07
2017-12-31T13:13:51.734Z,17.02
2017-12-31T13:15:29.247Z,16.99
2017-12-31T13:17:06.024Z,16.96
2017-12-31T13:18:44.623Z,17.01
2017-12-31T13:20:21.682Z,17.14
2017-12-31T13:22:03.458Z,17.22
2017-12-31T13:23:41.026Z,17.22
2017-12-31T13:25:17.591Z,17.21
2017-12-31T13:26:55.033Z,17.18
2017-12-31T13:28:32.863Z,17.02
2017-12-31T13:31:57.832Z,16.95
2017-12-31T13:33:35.256Z,16.91
2017-12-31T13:35:19.526Z,17.01
2017-12-31T13:36:57.067Z,16.94
2017-12-31T13:38:40.391Z,16.88
2017-12-31T13:40:18.944Z,16.94
2017-12-31T13:41:56.522Z,16.99
2017-12-31T13:43:35.343Z,16.98
2017-12-31T13:45:16.573Z,16.90
2017-12-31T13:46:58.597Z,16.82
2017-12-31T13:48:39.010Z,16.97
2017-12-31T13:50:16.624Z,17.11
2017-12-31T13:51:53.438Z,17.20
2017-12-31T13:53:31.273Z,17.14
2017-12-31T13:55:08.427Z,16.97
2017-12-31T13:56:47.467Z,16.94
2017-12-31T13:58:24.181Z,16.82
2017-12-31T14:00:01.279Z,16.80
2017-12-31T14:01:38.657Z,16.97
2017-12-31T14:03:15.207Z,17.02
2017-12-31T14:04:52.533Z,17.09
2017-12-31T14:06:30.208Z,17.00
2017-12-31T14:08:17.171Z,16.81
2017-12-31T14:09:53.866Z,16.69
2017-12-31T14:11:31.126Z,16.61
2017-12-31T14:13:08.488Z,16.45
2017-12-31T14:14:46.845Z,16.57
2017-12-31T14:16:26.500Z,16.57
2017-12-31T14:18:03.199Z,16.71
2017-12-31T14:19:40.246Z,16.75
2017-12-31T14:21:19.589Z,16.78
2017-12-31T14:22:56.432Z,16.69
2017-12-31T14:24:33.166Z,16.65
2017-12-31T14:26:11.106Z,16.68
2017-12-31T14:27:47.771Z,16.69
2017-12-31T14:29:24.551Z,16.82
2017-12-31T14:31:01.320Z,16.88
2017-12-31T14:32:38.556Z,16.99
2017-12-31T14:34:15.404Z,17.01
2017-12-31T14:35:52.758Z,16.99
2017-12-31T14:37:29.501Z,17.00
2017-12-31T14:39:07.703Z,16.92
2017-12-31T14:40:45.296Z,16.76
2017-12-31T14:42:21.962Z,16.81
2017-12-31T14:43:59.967Z,16.81
2017-12-31T14:45:37.887Z,16.75
2017-12-31T14:47:15.260Z,16.66
2017-12-31T14:48:52.639Z,16.78
2017-12-31T14:50:30.123Z,16.85
2017-12-31T14:52:16.904Z,16.87
2017-12-31T14:53:53.646Z,16.94
2017-12-31T14:55:30.582Z,17.04
2017-12-31T14:57:07.171Z,16.99
2017-12-31T14:58:44.377Z,16.81
2017-12-31T15:00:22.386Z,16.64
2017-12-31T15:02:00.197Z,16.51
2017-12-31T15:03:38.026Z,16.52
2017-12-31T15:05:16.126Z,16.51
2017-12-31T15:06:54.530Z,16.58
2017-12-31T15:08:36.674Z,16.66
2017-12-31T15:10:14.538Z,16.66
2017-12-31T15:11:52.310Z,16.57
2017-12-31T15:13:30.765Z,16.65
2017-12-31T15:15:08.481Z,16.70
2017-12-31T15:16:45.934Z,16.64
2017-12-31T15:18:23.518Z,16.65
2017-12-31T15:20:00.219Z,16.63
2017-12-31T15:21:36.999Z,16.75
2017-12-31T15:23:14.241Z,16.77
2017-12-31T15:24:51.477Z,16.78
2017-12-31T15:26:31.142Z,16.98
2017-12-31T15:28:08.734Z,17.10
2017-12-31T15:29:45.403Z,16.84
2017-12-31T15:31:24.459Z,16.98
2017-12-31T15:33:01.994Z,16.89
2017-12-31T15:34:39.020Z,16.79
2017-12-31T15:36:21.529Z,16.79
2017-12-31T15:37:58.466Z,16.72
2017-12-31T15:39:35.030Z,16.66
2017-12-31T15:41:11.585Z,16.65
2017-12-31T15:42:48.286Z,16.71
2017-12-31T15:44:25.467Z,16.65
2017-12-31T15:46:02.107Z,16.61
2017-12-31T15:47:39.470Z,16.74
2017-12-31T15:49:16.087Z,16.77
2017-12-31T15:50:53.762Z,16.75
2017-12-31T15:52:31.124Z,16.78
2017-12-31T15:54:07.857Z,16.89
2017-12-31T15:55:44.430Z,16.94
2017-12-31T15:57:21.522Z,17.02
2017-12-31T15:58:58.151Z,16.83
2017-12-31T16:00:35.307Z,16.78
2017-12-31T16:02:11.983Z,16.71
2017-12-31T16:03:49.420Z,16.75
2017-12-31T16:05:26.127Z,16.70
2017-12-31T16:07:02.853Z,16.57
2017-12-31T16:08:39.545Z,16.67
2017-12-31T16:10:16.547Z,16.57
2017-12-31T16:11:53.953Z,16.70
2017-12-31T16:13:30.600Z,16.83
2017-12-31T16:15:08.070Z,17.00
2017-12-31T16:16:45.052Z,16.92
2017-12-31T16:18:21.785Z,16.89
2017-12-31T16:19:58.524Z,16.83
2017-12-31T16:21:35.185Z,16.81
2017-12-31T16:23:12.243Z,16.82
2017-12-31T16:24:49.006Z,16.88
2017-12-31T16:26:25.626Z,16.92
2017-12-31T16:28:02.252Z,16.93
2017-12-31T16:29:39.300Z,17.00
2017-12-31T16:31:15.991Z,16.90
2017-12-31T16:32:55.495Z,16.84
2017-12-31T16:34:32.354Z,16.85
2017-12-31T16:36:09.494Z,16.88
2017-12-31T16:37:47.139Z,16.90
2017-12-31T16:39:25.576Z,16.96
2017-12-31T16:41:02.461Z,16.75
2017-12-31T16:42:39.647Z,16.76
2017-12-31T16:44:17.585Z,16.89
2017-12-31T16:45:54.284Z,16.84
2017-12-31T16:47:31.102Z,16.68
2017-12-31T16:49:07.718Z,16.67
2017-12-31T16:50:44.323Z,16.76
2017-12-31T16:52:20.954Z,16.68
2017-12-31T16:55:33.200Z,16.64
2017-12-31T16:57:10.564Z,16.65
2017-12-31T16:58:47.855Z,16.47
2017-12-31T17:00:31.405Z,16.37
2017-12-31T17:02:10.588Z,16.52
2017-12-31T17:03:48.026Z,16.42
2017-12-31T17:05:24.762Z,16.46
2017-12-31T17:07:02.735Z,16.47
2017-12-31T17:08:39.334Z,16.61
2017-12-31T17:10:17.385Z,16.61
2017-12-31T17:11:54.055Z,16.48
2017-12-31T17:13:32.077Z,16.53
2017-12-31T17:15:09.279Z,16.53
2017-12-31T17:16:46.049Z,16.51
2017-12-31T17:18:22.889Z,16.52
2017-12-31T17:20:00.707Z,16.45
2017-12-31T17:21:38.919Z,16.56
2017-12-31T17:23:15.555Z,16.42
2017-12-31T17:24:52.342Z,16.39
2017-12-31T17:26:29.954Z,16.17
2017-12-31T17:28:06.871Z,16.38
2017-12-31T17:29:43.448Z,16.23
2017-12-31T17:31:20.261Z,16.38
2017-12-31T17:32:57.272Z,16.47
2017-12-31T17:34:33.925Z,16.50
2017-12-31T17:36:11.891Z,16.43
2017-12-31T17:37:49.285Z,16.50
2017-12-31T17:39:26.861Z,16.47
2017-12-31T17:41:03.501Z,16.34
2017-12-31T17:42:40.430Z,16.33
2017-12-31T17:44:18.032Z,16.38
2017-12-31T17:45:55.209Z,16.44
2017-12-31T17:47:33.650Z,16.34
2017-12-31T17:49:10.590Z,16.39
2017-12-31T17:50:49.625Z,16.47
2017-12-31T17:52:26.465Z,16.47
2017-12-31T17:54:03.022Z,16.59
2017-12-31T17:55:41.165Z,16.25
2017-12-31T17:57:17.831Z,16.47
2017-12-31T17:58:54.911Z,16.64
2017-12-31T18:00:32.721Z,16.51
2017-12-31T18:02:10.268Z,16.31
2017-12-31T18:03:48.272Z,16.53
2017-12-31T18:05:25.469Z,16.50
2017-12-31T18:07:02.174Z,16.44
2017-12-31T18:08:38.724Z,16.38
2017-12-31T18:10:15.517Z,16.36
2017-12-31T18:11:53.989Z,16.41
2017-12-31T18:13:30.714Z,16.36
2017-12-31T18:15:08.265Z,16.38
2017-12-31T18:16:47.325Z,16.25
2017-12-31T18:18:24.820Z,16.31
2017-12-31T18:20:01.536Z,16.32
2017-12-31T18:21:38.247Z,16.28
2017-12-31T18:23:14.886Z,16.17
2017-12-31T18:24:51.650Z,16.15
2017-12-31T18:26:31.930Z,16.10
2017-12-31T18:28:08.699Z,15.92
2017-12-31T18:29:46.118Z,15.98
2017-12-31T18:31:23.115Z,15.94
2017-12-31T18:32:59.725Z,15.98
2017-12-31T18:34:36.477Z,16.04
2017-12-31T18:36:13.202Z,16.09
2017-12-31T18:37:50.221Z,16.13
2017-12-31T18:39:26.855Z,16.15
2017-12-31T18:41:03.651Z,16.00
2017-12-31T18:42:40.277Z,15.98
2017-12-31T18:44:17.266Z,15.97
2017-12-31T18:45:53.867Z,16.00
2017-12-31T18:47:30.522Z,16.11
2017-12-31T18:49:07.173Z,16.25
2017-12-31T18:50:44.281Z,16.17
2017-12-31T18:52:27.009Z,16.10
2017-12-31T18:54:04.658Z,15.93
2017-12-31T18:55:41.290Z,16.00
2017-12-31T18:57:19.770Z,16.13
2017-12-31T18:58:56.366Z,16.11
2017-12-31T19:00:33.777Z,15.96
2017-12-31T19:02:10.493Z,15.93
2017-12-31T19:03:48.360Z,15.94
2017-12-31T19:05:26.309Z,15.84
2017-12-31T19:07:02.881Z,15.99
2017-12-31T19:08:39.544Z,16.03
2017-12-31T19:10:16.968Z,16.15
2017-12-31T19:11:53.613Z,16.00
2017-12-31T19:13:30.470Z,15.99
2017-12-31T19:15:08.982Z,16.01
2017-12-31T19:16:47.629Z,15.99
2017-12-31T19:18:24.281Z,16.02
2017-12-31T19:20:01.231Z,15.92
2017-12-31T19:21:38.630Z,15.84
2017-12-31T19:23:15.864Z,15.77
2017-12-31T19:24:52.625Z,15.64
2017-12-31T19:26:29.521Z,15.62
2017-12-31T19:28:13.405Z,15.70
2017-12-31T19:29:50.761Z,15.81
2017-12-31T19:31:28.504Z,15.76
2017-12-31T19:33:05.772Z,15.69
2017-12-31T19:34:43.302Z,15.63
2017-12-31T19:36:22.086Z,15.67
2017-12-31T19:37:58.974Z,15.76
2017-12-31T19:39:37.349Z,15.61
2017-12-31T19:41:18.013Z,15.40
2017-12-31T19:42:56.896Z,15.00
2017-12-31T19:44:33.548Z,14.54
2017-12-31T19:46:10.226Z,13.90
2017-12-31T19:47:47.344Z,13.55
2017-12-31T19:49:26.375Z,13.24
2017-12-31T19:51:03.105Z,13.11
2017-12-31T19:52:39.822Z,12.99
2017-12-31T19:54:31.215Z,12.88
2017-12-31T19:56:07.815Z,12.71
2017-12-31T19:57:45.388Z,12.46
2017-12-31T19:59:22.838Z,12.39
2017-12-31T20:01:02.045Z,12.45
2017-12-31T20:02:42.995Z,12.40
2017-12-31T20:04:24.121Z,12.52
2017-12-31T20:06:01.399Z,12.58
2017-12-31T20:07:38.061Z,12.57
2017-12-31T20:09:15.061Z,12.51
2017-12-31T20:10:55.042Z,12.13
2017-12-31T20:12:32.157Z,12.30
2017-12-31T20:14:08.873Z,12.38
2017-12-31T20:15:47.053Z,12.46
2017-12-31T20:17:26.678Z,12.49
2017-12-31T20:19:04.597Z,12.45
2017-12-31T20:20:42.033Z,12.53
2017-12-31T20:22:20.981Z,12.55
2017-12-31T20:23:57.621Z,12.54
2017-12-31T20:25:40.841Z,12.33
2017-12-31T20:27:17.828Z,12.44
2017-12-31T20:28:57.765Z,12.55
2017-12-31T20:36:23.214Z,12.36
2017-12-31T20:38:00.118Z,12.24
2017-12-31T20:41:16.002Z,12.74
2017-12-31T20:42:53.039Z,12.98
2017-12-31T20:44:30.387Z,13.09
2017-12-31T20:46:08.135Z,13.13
2017-12-31T20:47:45.233Z,12.92
2017-12-31T20:49:22.445Z,12.82
2017-12-31T20:50:59.159Z,12.76
2017-12-31T20:52:35.847Z,12.72
2017-12-31T20:54:16.705Z,13.03
2017-12-31T20:55:54.474Z,13.33
2017-12-31T20:57:31.259Z,13.27
2017-12-31T20:59:08.658Z,13.24
2017-12-31T21:00:50.028Z,12.91
2017-12-31T21:02:27.641Z,13.12
2017-12-31T21:04:04.357Z,13.05
2017-12-31T21:05:41.030Z,13.25
2017-12-31T21:07:20.022Z,13.18
2017-12-31T21:08:58.993Z,13.15
2017-12-31T21:10:35.832Z,13.38
2017-12-31T21:12:13.646Z,13.29